createdAt,value
2018-09-30T00:04:18.769Z,"    0"
2018-09-30T00:09:14.000Z,"    0"
2018-09-30T00:14:10.736Z,"    0"
2018-09-30T00:19:06.269Z,"    0"
2018-09-30T00:24:02.037Z,"    0"
2018-09-30T00:28:57.656Z,"    0"
2018-09-30T00:33:54.560Z,"    0"
2018-09-30T00:38:50.652Z,"    0"
2018-09-30T00:43:46.155Z,"    0"
2018-09-30T00:48:42.601Z,"    0"
2018-09-30T00:53:40.131Z,"    0"
2018-09-30T00:58:35.328Z,"    0"
2018-09-30T01:03:32.236Z,"    0"
2018-09-30T01:08:27.531Z,"    0"
2018-09-30T01:13:23.577Z,"    0"
2018-09-30T01:18:19.324Z,"    0"
2018-09-30T01:23:16.148Z,"    0"
2018-09-30T01:28:12.626Z,"    0"
2018-09-30T01:33:08.002Z,"    0"
2018-09-30T01:38:03.466Z,"    0"
2018-09-30T01:43:00.123Z,"    0"
2018-09-30T01:47:55.576Z,"    0"
2018-09-30T01:52:51.375Z,"    0"
2018-09-30T01:57:47.653Z,"    0"
2018-09-30T02:02:43.831Z,"    0"
2018-09-30T02:07:39.418Z,"    0"
2018-09-30T02:12:36.116Z,"    0"
2018-09-30T02:17:31.428Z,"    0"
2018-09-30T02:22:27.274Z,"    0"
2018-09-30T02:27:23.709Z,"    0"
2018-09-30T02:32:19.403Z,"    0"
2018-09-30T02:37:15.935Z,"    0"
2018-09-30T02:42:11.317Z,"    0"
2018-09-30T02:47:08.011Z,"    0"
2018-09-30T02:52:04.081Z,"    0"
2018-09-30T02:56:59.856Z,"    0"
2018-09-30T03:01:55.474Z,"    0"
2018-09-30T03:06:51.138Z,"    0"
2018-09-30T03:11:46.817Z,"    0"
2018-09-30T03:16:43.290Z,"    0"
2018-09-30T03:21:40.221Z,"    0"
2018-09-30T03:26:35.832Z,"    0"
2018-09-30T03:31:32.495Z,"    0"
2018-09-30T03:36:27.808Z,"    0"
2018-09-30T03:41:23.673Z,"    0"
2018-09-30T03:46:20.280Z,"    0"
2018-09-30T03:51:16.774Z,"    0"
2018-09-30T03:56:12.188Z,"    0"
2018-09-30T04:01:09.298Z,"    0"
2018-09-30T04:06:04.657Z,"    0"
2018-09-30T04:11:00.508Z,"    0"
2018-09-30T04:15:56.833Z,"    0"
2018-09-30T04:20:53.183Z,"    0"
2018-09-30T04:25:49.718Z,"    0"
2018-09-30T04:30:45.547Z,"    0"
2018-09-30T04:35:41.233Z,"    0"
2018-09-30T04:40:36.637Z,"    0"
2018-09-30T04:45:33.281Z,"    0"
2018-09-30T04:50:28.805Z,"    0"
2018-09-30T04:55:25.501Z,"    0"
2018-09-30T05:00:21.735Z,"    0"
2018-09-30T05:05:17.700Z,"    0"
2018-09-30T05:10:13.429Z,"    0"
2018-09-30T05:15:09.880Z,"    0"
2018-09-30T05:20:05.329Z,"    0"
2018-09-30T05:25:02.164Z,"    0"
2018-09-30T05:29:58.628Z,"    5"
2018-09-30T05:34:53.885Z,"    5"
2018-09-30T05:39:49.519Z,"   10"
2018-09-30T05:44:45.271Z,"   15"
2018-09-30T05:49:40.753Z,"   15"
2018-09-30T05:54:37.860Z,"   20"
2018-09-30T05:59:33.261Z,"   25"
2018-09-30T06:04:28.991Z,"   30"
2018-09-30T06:09:24.581Z,"   30"
2018-09-30T06:14:21.317Z,"   35"
2018-09-30T06:19:17.242Z,"   40"
2018-09-30T06:24:14.306Z,"   40"
2018-09-30T06:29:09.798Z,"   45"
2018-09-30T06:34:07.415Z,"   45"
2018-09-30T06:39:02.829Z,"   50"
2018-09-30T06:43:59.639Z,"   55"
2018-09-30T06:48:57.040Z,"   70"
2018-09-30T06:53:53.821Z,"   90"
2018-09-30T06:58:49.379Z,"   75"
2018-09-30T07:03:46.284Z,"   60"
2018-09-30T07:08:42.920Z,"   65"
2018-09-30T07:13:39.262Z,"   65"
2018-09-30T07:18:35.046Z,"   65"
2018-09-30T07:23:30.710Z,"   65"
2018-09-30T07:28:26.413Z,"   70"
2018-09-30T07:33:22.189Z,"   70"
2018-09-30T07:38:18.070Z,"   70"
2018-09-30T07:43:15.245Z,"   70"
2018-09-30T07:48:12.160Z,"   75"
2018-09-30T07:53:08.713Z,"   75"
2018-09-30T07:58:04.511Z,"   75"
2018-09-30T08:03:00.281Z,"   75"
2018-09-30T08:07:56.219Z,"   80"
2018-09-30T08:12:52.992Z,"   80"
2018-09-30T08:17:49.595Z,"   85"
2018-09-30T08:22:46.631Z,"   80"
2018-09-30T08:27:43.233Z,"   80"
2018-09-30T08:32:38.705Z,"   80"
2018-09-30T08:37:35.620Z,"   80"
2018-09-30T08:42:31.101Z,"   80"
2018-09-30T08:47:27.586Z,"   80"
2018-09-30T08:52:23.482Z,"   85"
2018-09-30T08:57:19.556Z,"   80"
2018-09-30T09:02:15.791Z,"   80"
2018-09-30T09:07:11.769Z,"   85"
2018-09-30T09:12:08.996Z,"   85"
2018-09-30T09:17:05.689Z,"   85"
2018-09-30T09:22:01.974Z,"   90"
2018-09-30T09:26:58.043Z,"   90"
2018-09-30T09:31:54.002Z,"  105"
2018-09-30T09:36:50.144Z,"   90"
2018-09-30T09:41:47.209Z,"   95"
2018-09-30T09:46:43.668Z,"   90"
2018-09-30T09:51:39.347Z,"  105"
2018-09-30T09:56:35.517Z,"  165"
2018-09-30T10:01:31.464Z,"   95"
2018-09-30T10:06:28.622Z,"   95"
2018-09-30T10:11:25.356Z,"   95"
2018-09-30T10:16:21.905Z,"  100"
2018-09-30T10:21:17.947Z,"  100"
2018-09-30T10:26:15.364Z,"  100"
2018-09-30T10:31:12.165Z,"  515"
2018-09-30T10:36:08.344Z,"  105"
2018-09-30T10:41:03.931Z,"  110"
2018-09-30T10:45:59.943Z,"  510"
2018-09-30T10:50:57.304Z,"  205"
2018-09-30T10:55:54.029Z,"  855"
2018-09-30T11:00:52.359Z," 1005"
2018-09-30T11:05:49.133Z,"  820"
2018-09-30T11:10:46.966Z,"  855"
2018-09-30T11:15:43.932Z,"  780"
2018-09-30T11:20:40.709Z,"  830"
2018-09-30T11:25:36.855Z,"  800"
2018-09-30T11:30:34.288Z,"  910"
2018-09-30T11:35:30.732Z,"  800"
2018-09-30T11:40:27.519Z,"  350"
2018-09-30T11:45:22.609Z,"  250"
2018-09-30T11:50:17.945Z,"  245"
2018-09-30T11:55:13.452Z,"  170"
2018-09-30T12:00:09.006Z,"  465"
2018-09-30T12:05:07.181Z,"  780"
2018-09-30T12:10:02.537Z,"  635"
2018-09-30T12:14:59.626Z,"  735"
2018-09-30T12:19:55.738Z,"  760"
2018-09-30T12:24:52.779Z,"  225"
2018-09-30T12:29:47.905Z,"  185"
2018-09-30T12:34:43.625Z,"  120"
2018-09-30T12:39:40.046Z,"  155"
2018-09-30T12:44:35.419Z,"  195"
2018-09-30T12:49:31.668Z,"  205"
2018-09-30T12:54:27.587Z,"  230"
2018-09-30T12:59:23.752Z,"  475"
2018-09-30T13:04:20.238Z,"  420"
2018-09-30T13:09:16.105Z,"  240"
2018-09-30T13:14:11.894Z,"  270"
2018-09-30T13:19:08.593Z,"  195"
2018-09-30T13:24:04.294Z,"  230"
2018-09-30T13:29:00.689Z,"  180"
2018-09-30T13:33:56.081Z,"  155"
2018-09-30T13:38:53.217Z,"  160"
2018-09-30T13:43:48.716Z,"  175"
2018-09-30T13:48:45.833Z,"  140"
2018-09-30T13:53:41.301Z,"  150"
2018-09-30T13:58:37.975Z,"  145"
2018-09-30T14:03:33.452Z,"  150"
2018-09-30T14:08:28.970Z,"  145"
2018-09-30T14:13:25.093Z,"  135"
2018-09-30T14:18:22.316Z,"  125"
2018-09-30T14:23:17.946Z,"  130"
2018-09-30T14:28:13.855Z,"  115"
2018-09-30T14:33:10.054Z,"  115"
2018-09-30T14:38:07.009Z,"  115"
2018-09-30T14:43:04.296Z,"  115"
2018-09-30T14:48:00.126Z,"  115"
2018-09-30T14:52:55.906Z,"  115"
2018-09-30T14:57:52.849Z,"  105"
2018-09-30T15:02:49.355Z,"   95"
2018-09-30T15:07:45.972Z,"   90"
2018-09-30T15:12:42.446Z,"   75"
2018-09-30T15:17:37.860Z,"   70"
2018-09-30T15:22:34.575Z,"   70"
2018-09-30T15:27:30.320Z,"   65"
2018-09-30T15:32:27.738Z,"   65"
2018-09-30T15:37:23.303Z,"   65"
2018-09-30T15:42:19.197Z,"   60"
2018-09-30T15:47:14.922Z,"   60"
2018-09-30T15:52:11.550Z,"   55"
2018-09-30T15:57:07.006Z,"   55"
2018-09-30T16:02:02.935Z,"   50"
2018-09-30T16:06:58.844Z,"   45"
2018-09-30T16:11:54.574Z,"   40"
2018-09-30T16:16:50.294Z,"   35"
2018-09-30T16:21:45.943Z,"   30"
2018-09-30T16:26:43.554Z,"   25"
2018-09-30T16:31:39.953Z,"   20"
2018-09-30T16:36:35.568Z,"   15"
2018-09-30T16:41:32.283Z,"   10"
2018-09-30T16:46:29.071Z,"   10"
2018-09-30T16:51:25.554Z,"    5"
2018-09-30T16:56:20.934Z,"    5"
2018-09-30T17:01:16.824Z,"    0"
2018-09-30T17:06:12.228Z,"    0"
2018-09-30T17:11:08.497Z,"    0"
2018-09-30T17:16:04.235Z,"    0"
2018-09-30T17:21:00.117Z,"    0"
2018-09-30T17:25:55.937Z,"    0"
2018-09-30T17:30:51.804Z,"    0"
2018-09-30T17:35:48.805Z,"    0"
2018-09-30T17:40:43.990Z,"    0"
2018-09-30T17:45:39.860Z,"    0"
2018-09-30T17:50:35.689Z,"    0"
2018-09-30T17:55:31.821Z,"    0"
2018-09-30T18:00:28.576Z,"    0"
2018-09-30T18:05:24.318Z,"    0"
2018-09-30T18:10:20.864Z,"    0"
2018-09-30T18:15:16.342Z,"    0"
2018-09-30T18:20:11.833Z,"    0"
2018-09-30T18:25:08.625Z,"    0"
2018-09-30T18:30:04.899Z,"    0"
2018-09-30T18:35:01.733Z,"    0"
2018-09-30T18:39:58.832Z,"    0"
2018-09-30T18:44:54.361Z,"    0"
2018-09-30T18:49:50.652Z,"    0"
2018-09-30T18:54:46.363Z,"    0"
2018-09-30T18:59:42.505Z,"    0"
2018-09-30T19:04:38.377Z,"    0"
2018-09-30T19:09:35.211Z,"    0"
2018-09-30T19:14:30.609Z,"    0"
2018-09-30T19:19:27.822Z,"    0"
2018-09-30T19:24:24.130Z,"    0"
2018-09-30T19:29:19.671Z,"    0"
2018-09-30T19:34:15.488Z,"    0"
2018-09-30T19:39:11.598Z,"    0"
2018-09-30T19:44:07.540Z,"    0"
2018-09-30T19:49:03.237Z,"    0"
2018-09-30T19:53:59.136Z,"    0"
2018-09-30T19:58:54.952Z,"    0"
2018-09-30T20:03:50.765Z,"    0"
2018-09-30T20:08:46.599Z,"    0"
2018-09-30T20:13:42.207Z,"    0"
2018-09-30T20:18:38.388Z,"    0"
2018-09-30T20:23:34.261Z,"    0"
2018-09-30T20:28:30.588Z,"    0"
2018-09-30T20:33:27.468Z,"    0"
2018-09-30T20:38:23.501Z,"    0"
2018-09-30T20:43:19.239Z,"    0"
2018-09-30T20:48:14.989Z,"    0"
2018-09-30T20:53:10.840Z,"    0"
2018-09-30T20:58:07.542Z,"    0"
2018-09-30T21:03:03.842Z,"    0"
2018-09-30T21:07:59.671Z,"    0"
2018-09-30T21:12:55.893Z,"    0"
2018-09-30T21:17:51.673Z,"    0"
2018-09-30T21:22:48.100Z,"    0"
2018-09-30T21:27:44.531Z,"    0"
2018-09-30T21:32:39.864Z,"    0"
2018-09-30T21:37:35.497Z,"    0"
2018-09-30T21:42:31.966Z,"    0"
2018-09-30T21:47:27.813Z,"    0"
2018-09-30T21:52:23.579Z,"    0"
2018-09-30T21:57:19.275Z,"    0"
2018-09-30T22:02:15.035Z,"    0"
2018-09-30T22:07:12.147Z,"    0"
2018-09-30T22:12:08.587Z,"    0"
2018-09-30T22:17:04.699Z,"    0"
2018-09-30T22:22:01.576Z,"    0"
2018-09-30T22:26:57.235Z,"    0"
2018-09-30T22:31:53.171Z,"    0"
2018-09-30T22:36:50.069Z,"    0"
2018-09-30T22:41:46.368Z,"    0"
2018-09-30T22:46:43.012Z,"    0"
2018-09-30T22:51:38.484Z,"    0"
2018-09-30T22:56:35.763Z,"    0"
2018-09-30T23:01:31.532Z,"    0"
2018-09-30T23:06:27.299Z,"    0"
2018-09-30T23:11:23.116Z,"    0"
2018-09-30T23:16:19.177Z,"    0"
2018-09-30T23:21:15.160Z,"    0"
2018-09-30T23:26:11.099Z,"    0"
2018-09-30T23:31:07.163Z,"    0"
2018-09-30T23:36:02.744Z,"    0"
2018-09-30T23:40:58.846Z,"    0"
2018-09-30T23:45:55.660Z,"    0"
2018-09-30T23:50:52.019Z,"    0"
2018-09-30T23:55:48.160Z,"    0"
